createdAt,value
2019-06-01T00:01:23.708Z,19.82
2019-06-01T00:03:55.686Z,19.83
2019-06-01T00:06:27.739Z,19.83
2019-06-01T00:08:59.742Z,19.84
2019-06-01T00:11:31.748Z,19.85
2019-06-01T00:14:04.166Z,19.83
2019-06-01T00:16:36.463Z,19.84
2019-06-01T00:19:08.476Z,19.83
2019-06-01T00:21:41.153Z,19.84
2019-06-01T00:24:13.208Z,19.81
2019-06-01T00:26:45.854Z,19.80
2019-06-01T00:29:17.911Z,19.77
2019-06-01T00:31:50.053Z,19.77
2019-06-01T00:34:22.012Z,19.77
2019-06-01T00:36:54.062Z,19.75
2019-06-01T00:39:26.048Z,19.74
2019-06-01T00:41:58.344Z,19.73
2019-06-01T00:44:30.441Z,19.73
2019-06-01T00:47:02.421Z,19.73
2019-06-01T00:49:34.394Z,19.73
2019-06-01T00:52:06.405Z,19.73
2019-06-01T00:54:38.428Z,19.73
2019-06-01T00:57:10.413Z,19.74
2019-06-01T00:59:43.593Z,19.75
2019-06-01T01:02:15.736Z,19.74
2019-06-01T01:04:50.371Z,19.45
2019-06-01T01:07:22.386Z,19.75
2019-06-01T01:09:54.995Z,19.75
2019-06-01T01:12:26.980Z,19.76
2019-06-01T01:14:58.938Z,19.74
2019-06-01T01:17:30.929Z,19.74
2019-06-01T01:20:02.890Z,19.75
2019-06-01T01:22:34.897Z,19.76
2019-06-01T01:25:07.723Z,19.76
2019-06-01T01:27:39.732Z,19.77
2019-06-01T01:30:11.846Z,19.76
2019-06-01T01:32:43.832Z,19.77
2019-06-01T01:35:16.028Z,19.76
2019-06-01T01:37:48.093Z,19.78
2019-06-01T01:40:20.293Z,19.77
2019-06-01T01:42:54.399Z,19.79
2019-06-01T01:45:26.794Z,19.77
2019-06-01T01:47:59.247Z,19.49
2019-06-01T01:50:31.325Z,19.76
2019-06-01T01:53:03.449Z,19.76
2019-06-01T01:55:35.466Z,19.77
2019-06-01T01:58:07.428Z,19.77
2019-06-01T02:00:43.733Z,19.77
2019-06-01T02:03:15.985Z,19.78
2019-06-01T02:05:48.068Z,19.78
2019-06-01T02:08:20.035Z,19.77
2019-06-01T02:10:53.226Z,19.77
2019-06-01T02:13:25.358Z,19.74
2019-06-01T02:15:58.254Z,19.74
2019-06-01T02:18:30.410Z,19.72
2019-06-01T02:21:02.730Z,19.73
2019-06-01T02:23:34.809Z,19.71
2019-06-01T02:26:06.909Z,19.44
2019-06-01T02:28:38.869Z,19.73
2019-06-01T02:31:10.838Z,19.73
2019-06-01T02:33:42.841Z,19.72
2019-06-01T02:36:14.946Z,19.75
2019-06-01T02:38:46.940Z,19.75
2019-06-01T02:41:18.996Z,19.77
2019-06-01T02:43:51.115Z,19.76
2019-06-01T02:46:23.366Z,19.77
2019-06-01T02:48:55.530Z,19.50
2019-06-01T02:51:27.582Z,19.76
2019-06-01T02:53:59.680Z,19.75
2019-06-01T02:56:31.675Z,19.75
2019-06-01T02:59:04.401Z,19.74
2019-06-01T03:01:38.102Z,19.74
2019-06-01T03:04:11.902Z,19.74
2019-06-01T03:06:45.091Z,19.74
2019-06-01T03:09:18.653Z,19.73
2019-06-01T03:11:53.759Z,19.73
2019-06-01T03:14:28.888Z,19.73
2019-06-01T03:17:01.954Z,19.72
2019-06-01T03:19:38.464Z,19.70
2019-06-01T03:22:14.686Z,19.70
2019-06-01T03:24:50.653Z,19.69
2019-06-01T03:27:23.939Z,19.69
2019-06-01T03:29:58.669Z,19.67
2019-06-01T03:32:36.729Z,19.66
2019-06-01T03:35:05.157Z,19.66
2019-06-01T03:37:37.125Z,19.66
2019-06-01T03:40:15.643Z,19.68
2019-06-01T03:42:43.032Z,19.69
2019-06-01T03:45:15.173Z,19.68
2019-06-01T03:47:47.215Z,19.68
2019-06-01T03:50:19.251Z,19.70
2019-06-01T03:52:51.230Z,19.71
2019-06-01T03:55:23.297Z,19.70
2019-06-01T03:57:55.224Z,19.72
2019-06-01T04:00:27.485Z,19.71
2019-06-01T04:03:00.798Z,19.71
2019-06-01T04:05:32.889Z,19.68
2019-06-01T04:08:05.590Z,19.74
2019-06-01T04:10:37.659Z,19.75
2019-06-01T04:13:09.689Z,19.76
2019-06-01T04:15:41.666Z,19.76
2019-06-01T04:18:14.085Z,19.75
2019-06-01T04:20:46.066Z,19.75
2019-06-01T04:23:18.021Z,19.76
2019-06-01T04:25:50.074Z,19.77
2019-06-01T04:28:23.400Z,19.76
2019-06-01T04:30:55.587Z,19.78
2019-06-01T04:33:27.609Z,19.80
2019-06-01T04:35:59.663Z,19.80
2019-06-01T04:38:31.628Z,19.81
2019-06-01T04:41:03.805Z,19.80
2019-06-01T04:43:35.763Z,19.80
2019-06-01T04:46:08.211Z,19.80
2019-06-01T04:48:40.523Z,19.79
2019-06-01T04:51:13.474Z,19.80
2019-06-01T04:53:45.478Z,19.81
2019-06-01T04:56:17.453Z,19.84
2019-06-01T04:58:49.460Z,19.86
2019-06-01T05:01:21.403Z,19.90
2019-06-01T05:03:53.438Z,19.94
2019-06-01T05:06:25.450Z,19.98
2019-06-01T05:08:57.431Z,20.01
2019-06-01T05:11:29.390Z,20.03
2019-06-01T05:14:01.691Z,20.04
2019-06-01T05:16:33.653Z,20.08
2019-06-01T05:19:06.040Z,20.11
2019-06-01T05:21:38.397Z,20.18
2019-06-01T05:24:10.690Z,20.23
2019-06-01T05:26:42.774Z,20.28
2019-06-01T05:29:15.707Z,20.35
2019-06-01T05:31:48.288Z,20.41
2019-06-01T05:34:20.252Z,20.46
2019-06-01T05:36:52.554Z,20.52
2019-06-01T05:39:24.807Z,20.58
2019-06-01T05:41:56.899Z,20.63
2019-06-01T05:44:28.848Z,20.69
2019-06-01T05:47:00.819Z,20.75
2019-06-01T05:49:32.870Z,20.82
2019-06-01T05:52:05.126Z,20.61
2019-06-01T05:54:37.169Z,20.97
2019-06-01T05:57:10.449Z,21.08
2019-06-01T05:59:42.579Z,21.18
2019-06-01T06:02:15.241Z,21.29
2019-06-01T06:04:47.337Z,21.43
2019-06-01T06:07:19.317Z,21.56
2019-06-01T06:09:51.474Z,21.66
2019-06-01T06:12:23.428Z,21.74
2019-06-01T06:14:55.646Z,21.82
2019-06-01T06:17:27.616Z,21.83
2019-06-01T06:19:59.614Z,21.80
2019-06-01T06:22:31.771Z,21.72
2019-06-01T06:25:04.240Z,21.66
2019-06-01T06:27:36.235Z,21.36
2019-06-01T06:30:09.136Z,21.59
2019-06-01T06:32:41.127Z,21.55
2019-06-01T06:35:13.374Z,21.54
2019-06-01T06:37:45.409Z,21.55
2019-06-01T06:40:20.032Z,21.59
2019-06-01T06:42:52.196Z,21.63
2019-06-01T06:45:24.963Z,21.66
2019-06-01T06:47:57.046Z,21.71
2019-06-01T06:50:29.008Z,21.79
2019-06-01T06:53:00.979Z,21.88
2019-06-01T06:55:32.959Z,22.00
2019-06-01T06:58:05.003Z,22.16
2019-06-01T07:00:37.152Z,22.30
2019-06-01T07:03:09.565Z,22.41
2019-06-01T07:05:41.715Z,22.46
2019-06-01T07:08:13.756Z,22.52
2019-06-01T07:10:45.894Z,22.59
2019-06-01T07:13:18.119Z,22.65
2019-06-01T07:15:51.288Z,22.70
2019-06-01T07:18:23.641Z,22.77
2019-06-01T07:20:55.740Z,22.80
2019-06-01T07:23:28.043Z,22.84
2019-06-01T07:26:00.104Z,22.87
2019-06-01T07:28:32.486Z,22.92
2019-06-01T07:31:04.644Z,23.00
2019-06-01T07:33:36.626Z,23.09
2019-06-01T07:36:08.595Z,23.18
2019-06-01T07:38:40.556Z,23.31
2019-06-01T07:41:12.608Z,23.46
2019-06-01T07:43:44.661Z,23.58
2019-06-01T07:46:16.715Z,23.66
2019-06-01T07:48:48.663Z,23.73
2019-06-01T07:51:21.090Z,23.78
2019-06-01T07:53:53.116Z,23.80
2019-06-01T07:56:26.444Z,23.83
2019-06-01T07:58:58.482Z,23.86
2019-06-01T08:01:31.407Z,23.88
2019-06-01T08:04:04.506Z,23.95
2019-06-01T08:06:36.529Z,24.07
2019-06-01T08:09:08.483Z,24.19
2019-06-01T08:11:40.469Z,24.24
2019-06-01T08:14:12.800Z,24.29
2019-06-01T08:16:44.889Z,24.37
2019-06-01T08:19:16.844Z,24.48
2019-06-01T08:21:48.988Z,24.52
2019-06-01T08:24:22.055Z,24.56
2019-06-01T08:26:54.201Z,24.56
2019-06-01T08:29:26.639Z,24.49
2019-06-01T08:31:58.715Z,24.36
2019-06-01T08:34:31.089Z,24.24
2019-06-01T08:37:03.210Z,24.16
2019-06-01T08:39:35.375Z,24.24
2019-06-01T08:42:07.421Z,24.38
2019-06-01T08:44:39.513Z,24.53
2019-06-01T08:47:11.778Z,24.63
2019-06-01T08:49:43.823Z,24.76
2019-06-01T08:52:15.756Z,24.83
2019-06-01T08:54:47.878Z,24.81
2019-06-01T08:57:19.829Z,24.78
2019-06-01T08:59:51.803Z,24.79
2019-06-01T09:02:24.578Z,24.76
2019-06-01T09:04:56.807Z,24.59
2019-06-01T09:07:29.054Z,24.39
2019-06-01T09:10:01.106Z,24.20
2019-06-01T09:12:33.319Z,24.09
2019-06-01T09:15:11.798Z,24.06
2019-06-01T09:17:43.818Z,24.03
2019-06-01T09:20:16.038Z,24.00
2019-06-01T09:22:48.339Z,23.97
2019-06-01T09:25:20.428Z,23.98
2019-06-01T09:27:52.695Z,23.99
2019-06-01T09:30:25.895Z,24.06
2019-06-01T09:32:57.979Z,24.12
2019-06-01T09:35:47.754Z,24.14
2019-06-01T09:38:03.751Z,24.16
2019-06-01T09:40:37.186Z,24.17
2019-06-01T09:43:09.956Z,24.21
2019-06-01T09:45:41.992Z,24.23
2019-06-01T09:48:13.936Z,24.22
2019-06-01T09:50:46.071Z,24.18
2019-06-01T09:53:18.052Z,24.15
2019-06-01T09:55:50.157Z,24.19
2019-06-01T09:58:22.167Z,24.20
2019-06-01T10:00:54.171Z,23.94
2019-06-01T10:03:26.383Z,24.23
2019-06-01T10:06:01.845Z,24.28
2019-06-01T10:08:32.631Z,24.38
2019-06-01T10:11:04.928Z,24.50
2019-06-01T10:13:38.261Z,24.63
2019-06-01T10:16:10.524Z,24.74
2019-06-01T10:18:43.140Z,24.86
2019-06-01T10:21:15.169Z,25.05
2019-06-01T10:23:49.683Z,25.18
2019-06-01T10:26:21.138Z,25.30
2019-06-01T10:28:53.120Z,25.43
2019-06-01T10:31:25.186Z,25.56
2019-06-01T10:33:57.299Z,25.60
2019-06-01T10:36:29.342Z,25.61
2019-06-01T10:39:01.651Z,25.63
2019-06-01T10:41:33.603Z,25.65
2019-06-01T10:44:05.733Z,25.68
2019-06-01T10:46:38.129Z,25.73
2019-06-01T10:49:10.286Z,25.80
2019-06-01T10:51:42.462Z,25.88
2019-06-01T10:54:14.752Z,25.93
2019-06-01T10:56:47.116Z,25.99
2019-06-01T10:59:19.070Z,26.08
2019-06-01T11:01:51.082Z,26.12
2019-06-01T11:04:23.236Z,26.09
2019-06-01T11:06:55.604Z,26.04
2019-06-01T11:09:27.564Z,26.07
2019-06-01T11:11:59.554Z,26.14
2019-06-01T11:14:32.882Z,25.90
2019-06-01T11:17:05.073Z,26.15
2019-06-01T11:19:37.220Z,26.18
2019-06-01T11:22:09.222Z,26.25
2019-06-01T11:24:41.599Z,26.34
2019-06-01T11:27:13.687Z,26.45
2019-06-01T11:29:51.002Z,26.51
2019-06-01T11:32:19.482Z,26.54
2019-06-01T11:34:51.453Z,26.58
2019-06-01T11:37:23.407Z,26.53
2019-06-01T11:39:55.788Z,26.52
2019-06-01T11:42:28.024Z,26.44
2019-06-01T11:45:00.065Z,26.37
2019-06-01T11:47:32.171Z,26.34
2019-06-01T11:50:08.516Z,26.32
2019-06-01T11:52:41.129Z,26.37
2019-06-01T11:55:13.627Z,26.40
2019-06-01T11:57:45.994Z,26.40
2019-06-01T12:00:18.883Z,26.46
2019-06-01T12:02:50.898Z,26.46
2019-06-01T12:05:22.857Z,26.46
2019-06-01T12:07:54.887Z,26.48
2019-06-01T12:10:26.841Z,26.46
2019-06-01T12:12:58.837Z,26.41
2019-06-01T12:15:30.846Z,26.42
2019-06-01T12:18:02.841Z,26.48
2019-06-01T12:20:34.842Z,26.58
2019-06-01T12:23:06.801Z,26.66
2019-06-01T12:25:40.083Z,26.71
2019-06-01T12:28:12.279Z,26.75
2019-06-01T12:30:44.238Z,26.80
2019-06-01T12:33:16.206Z,26.79
2019-06-01T12:35:48.241Z,26.76
2019-06-01T12:38:20.253Z,26.52
2019-06-01T12:40:52.278Z,26.79
2019-06-01T12:43:24.402Z,26.84
2019-06-01T12:46:06.985Z,26.82
2019-06-01T12:48:30.119Z,26.78
2019-06-01T12:51:02.108Z,26.73
2019-06-01T12:53:34.109Z,26.71
2019-06-01T12:56:06.074Z,26.71
2019-06-01T12:58:39.777Z,26.77
2019-06-01T13:01:12.303Z,26.76
2019-06-01T13:03:45.238Z,26.70
2019-06-01T13:06:17.433Z,26.69
2019-06-01T13:08:49.446Z,26.76
2019-06-01T13:11:21.570Z,26.76
2019-06-01T13:13:53.637Z,26.54
2019-06-01T13:16:25.737Z,26.22
2019-06-01T13:18:57.855Z,26.08
2019-06-01T13:21:29.957Z,26.12
2019-06-01T13:24:02.037Z,26.17
2019-06-01T13:26:34.056Z,26.23
2019-06-01T13:29:06.601Z,26.34
2019-06-01T13:31:38.569Z,26.40
2019-06-01T13:34:10.628Z,26.34
2019-06-01T13:36:42.960Z,26.30
2019-06-01T13:39:15.014Z,26.35
2019-06-01T13:41:47.272Z,26.38
2019-06-01T13:44:19.339Z,26.43
2019-06-01T13:46:51.486Z,26.48
2019-06-01T13:49:23.564Z,26.55
2019-06-01T13:51:55.555Z,26.61
2019-06-01T13:54:27.519Z,26.65
2019-06-01T13:56:59.510Z,26.64
2019-06-01T13:59:31.466Z,26.67
2019-06-01T14:02:03.826Z,26.62
2019-06-01T14:04:35.909Z,26.58
2019-06-01T14:07:07.853Z,26.56
2019-06-01T14:09:39.824Z,26.58
2019-06-01T14:12:11.927Z,26.55
2019-06-01T14:14:45.338Z,26.51
2019-06-01T14:17:17.477Z,26.52
2019-06-01T14:19:49.677Z,26.58
2019-06-01T14:22:22.198Z,26.56
2019-06-01T14:25:11.538Z,26.56
2019-06-01T14:27:28.093Z,26.59
2019-06-01T14:30:00.244Z,26.61
2019-06-01T14:32:32.547Z,26.67
2019-06-01T14:35:07.288Z,26.68
2019-06-01T14:37:39.252Z,26.73
2019-06-01T14:40:11.818Z,26.79
2019-06-01T14:42:43.931Z,26.69
2019-06-01T14:45:17.239Z,26.60
2019-06-01T14:47:49.430Z,26.56
2019-06-01T14:50:21.578Z,26.60
2019-06-01T14:52:53.747Z,26.58
2019-06-01T14:55:25.744Z,26.53
2019-06-01T14:57:58.455Z,26.51
2019-06-01T15:00:30.531Z,26.31
2019-06-01T15:03:02.932Z,25.83
2019-06-01T15:05:35.080Z,25.57
2019-06-01T15:08:07.040Z,25.22
2019-06-01T15:10:39.158Z,24.90
2019-06-01T15:13:11.360Z,24.59
2019-06-01T15:15:43.389Z,24.33
2019-06-01T15:18:15.737Z,24.21
2019-06-01T15:20:47.852Z,24.10
2019-06-01T15:23:19.872Z,23.96
2019-06-01T15:25:52.421Z,23.97
2019-06-01T15:28:24.490Z,24.07
2019-06-01T15:30:57.106Z,24.02
2019-06-01T15:33:29.253Z,23.92
2019-06-01T15:36:01.859Z,23.97
2019-06-01T15:38:34.427Z,23.89
2019-06-01T15:41:06.380Z,23.92
2019-06-01T15:43:38.376Z,23.95
2019-06-01T15:46:10.473Z,23.99
2019-06-01T15:48:42.559Z,23.80
2019-06-01T15:51:14.548Z,24.14
2019-06-01T15:53:46.708Z,24.16
2019-06-01T15:56:18.640Z,24.19
2019-06-01T15:58:54.606Z,24.24
2019-06-01T16:01:24.322Z,24.17
2019-06-01T16:03:57.326Z,24.06
2019-06-01T16:06:29.844Z,23.95
2019-06-01T16:09:01.889Z,23.63
2019-06-01T16:11:34.001Z,23.83
2019-06-01T16:14:06.091Z,23.86
2019-06-01T16:16:38.206Z,23.84
2019-06-01T16:19:10.171Z,23.77
2019-06-01T16:21:42.160Z,23.76
2019-06-01T16:24:14.089Z,23.78
2019-06-01T16:26:46.061Z,23.74
2019-06-01T16:29:18.040Z,23.66
2019-06-01T16:31:50.090Z,23.58
2019-06-01T16:34:22.122Z,23.58
2019-06-01T16:36:54.801Z,23.55
2019-06-01T16:39:26.867Z,23.39
2019-06-01T16:41:59.812Z,23.37
2019-06-01T16:44:31.846Z,23.39
2019-06-01T16:47:04.517Z,23.44
2019-06-01T16:49:36.615Z,23.44
2019-06-01T16:52:08.765Z,23.42
2019-06-01T16:54:40.727Z,23.37
2019-06-01T16:57:12.732Z,23.29
2019-06-01T16:59:44.796Z,23.20
2019-06-01T17:02:17.003Z,23.22
2019-06-01T17:04:49.052Z,23.22
2019-06-01T17:07:20.991Z,23.19
2019-06-01T17:09:53.043Z,23.23
2019-06-01T17:12:25.031Z,23.30
2019-06-01T17:14:57.236Z,23.45
2019-06-01T17:17:29.254Z,23.50
2019-06-01T17:20:01.267Z,23.47
2019-06-01T17:22:33.303Z,23.37
2019-06-01T17:25:08.023Z,23.32
2019-06-01T17:27:40.127Z,23.32
2019-06-01T17:30:12.223Z,23.36
2019-06-01T17:32:44.434Z,23.36
2019-06-01T17:35:16.421Z,23.04
2019-06-01T17:37:48.690Z,23.34
2019-06-01T17:40:36.026Z,23.38
2019-06-01T17:42:54.313Z,23.34
2019-06-01T17:45:26.412Z,23.35
2019-06-01T17:48:13.956Z,23.35
2019-06-01T17:50:32.434Z,23.27
2019-06-01T17:53:04.838Z,23.12
2019-06-01T17:55:39.395Z,22.98
2019-06-01T17:58:12.487Z,22.82
2019-06-01T18:00:45.017Z,22.68
2019-06-01T18:03:17.030Z,22.59
2019-06-01T18:05:49.281Z,22.52
2019-06-01T18:08:21.552Z,22.40
2019-06-01T18:10:54.926Z,22.27
2019-06-01T18:13:27.199Z,22.18
2019-06-01T18:15:59.197Z,22.18
2019-06-01T18:18:31.216Z,22.20
2019-06-01T18:21:04.173Z,22.25
2019-06-01T18:23:36.439Z,22.25
2019-06-01T18:26:11.183Z,22.24
2019-06-01T18:28:43.141Z,22.21
2019-06-01T18:31:15.199Z,22.20
2019-06-01T18:33:47.288Z,22.25
2019-06-01T18:36:19.241Z,22.04
2019-06-01T18:38:51.229Z,22.33
2019-06-01T18:41:23.309Z,22.22
2019-06-01T18:43:55.649Z,22.16
2019-06-01T18:46:28.016Z,22.04
2019-06-01T18:49:00.384Z,22.00
2019-06-01T18:51:32.740Z,21.99
2019-06-01T18:54:04.960Z,21.92
2019-06-01T18:56:36.929Z,21.87
2019-06-01T18:59:10.193Z,21.79
2019-06-01T19:01:42.272Z,21.71
2019-06-01T19:04:14.329Z,21.69
2019-06-01T19:06:46.583Z,21.72
2019-06-01T19:09:18.517Z,21.75
2019-06-01T19:11:50.553Z,21.73
2019-06-01T19:14:22.571Z,21.67
2019-06-01T19:16:54.758Z,21.61
2019-06-01T19:19:26.844Z,21.58
2019-06-01T19:21:58.792Z,21.54
2019-06-01T19:24:31.083Z,21.51
2019-06-01T19:27:03.150Z,21.48
2019-06-01T19:29:35.210Z,21.44
2019-06-01T19:32:08.697Z,21.39
2019-06-01T19:34:41.084Z,21.36
2019-06-01T19:37:13.332Z,21.36
2019-06-01T19:39:47.044Z,21.40
2019-06-01T19:42:19.053Z,21.40
2019-06-01T19:44:51.039Z,21.38
2019-06-01T19:47:22.982Z,21.32
2019-06-01T19:49:55.028Z,21.29
2019-06-01T19:52:26.994Z,21.24
2019-06-01T19:54:58.970Z,21.23
2019-06-01T19:57:30.963Z,21.21
2019-06-01T20:00:03.550Z,21.22
2019-06-01T20:02:35.751Z,21.21
2019-06-01T20:05:08.649Z,21.19
2019-06-01T20:07:40.692Z,21.12
2019-06-01T20:10:14.426Z,21.08
2019-06-01T20:12:46.733Z,21.02
2019-06-01T20:15:19.621Z,20.96
2019-06-01T20:17:51.729Z,20.88
2019-06-01T20:20:23.857Z,20.90
2019-06-01T20:22:55.844Z,20.89
2019-06-01T20:25:27.983Z,20.83
2019-06-01T20:28:00.212Z,20.75
2019-06-01T20:30:32.504Z,20.68
2019-06-01T20:33:04.931Z,20.59
2019-06-01T20:35:36.895Z,20.52
2019-06-01T20:38:08.932Z,20.51
2019-06-01T20:40:41.250Z,20.48
2019-06-01T20:43:14.542Z,20.46
2019-06-01T20:45:46.609Z,20.46
2019-06-01T20:48:20.734Z,20.43
2019-06-01T20:50:53.026Z,20.44
2019-06-01T20:53:25.370Z,20.44
2019-06-01T20:55:57.392Z,20.43
2019-06-01T20:58:29.366Z,20.42
2019-06-01T21:01:01.354Z,20.44
2019-06-01T21:03:33.327Z,20.43
2019-06-01T21:06:05.426Z,20.42
2019-06-01T21:08:37.429Z,20.45
2019-06-01T21:11:09.694Z,20.46
2019-06-01T21:13:41.812Z,20.45
2019-06-01T21:16:14.137Z,20.43
2019-06-01T21:18:46.146Z,20.12
2019-06-01T21:21:18.266Z,20.43
2019-06-01T21:23:50.363Z,20.45
2019-06-01T21:26:23.057Z,20.42
2019-06-01T21:28:55.368Z,20.39
2019-06-01T21:31:27.482Z,20.29
2019-06-01T21:33:59.521Z,20.38
2019-06-01T21:36:31.549Z,20.40
2019-06-01T21:39:05.056Z,20.40
2019-06-01T21:41:37.054Z,20.39
2019-06-01T21:44:09.095Z,20.39
2019-06-01T21:46:41.077Z,20.38
2019-06-01T21:49:13.143Z,20.39
2019-06-01T21:51:45.256Z,20.37
2019-06-01T21:54:18.051Z,20.36
2019-06-01T21:56:50.275Z,20.35
2019-06-01T21:59:22.805Z,20.31
2019-06-01T22:01:54.808Z,20.31
2019-06-01T22:04:27.217Z,20.30
2019-06-01T22:06:59.235Z,20.28
2019-06-01T22:09:31.327Z,20.26
2019-06-01T22:12:03.309Z,19.95
2019-06-01T22:14:35.434Z,20.24
2019-06-01T22:17:07.501Z,20.24
2019-06-01T22:19:39.459Z,20.23
2019-06-01T22:22:11.433Z,20.22
2019-06-01T22:24:43.474Z,20.20
2019-06-01T22:27:15.479Z,20.17
2019-06-01T22:29:47.469Z,20.18
2019-06-01T22:32:22.957Z,20.17
2019-06-01T22:34:53.077Z,20.14
2019-06-01T22:37:25.794Z,20.13
2019-06-01T22:39:57.864Z,20.12
2019-06-01T22:42:29.874Z,20.10
2019-06-01T22:45:01.831Z,20.09
2019-06-01T22:47:34.058Z,19.75
2019-06-01T22:50:07.695Z,20.04
2019-06-01T22:52:39.949Z,20.02
2019-06-01T22:55:12.660Z,20.00
2019-06-01T22:57:44.693Z,19.87
2019-06-01T23:00:17.663Z,19.94
2019-06-01T23:02:49.637Z,19.92
2019-06-01T23:05:22.887Z,19.91
2019-06-01T23:07:55.009Z,19.93
2019-06-01T23:10:31.686Z,19.95
2019-06-01T23:13:00.823Z,19.64
2019-06-01T23:15:32.934Z,19.92
2019-06-01T23:18:05.021Z,19.89
2019-06-01T23:20:36.984Z,19.88
2019-06-01T23:23:09.017Z,19.86
2019-06-01T23:25:40.971Z,19.86
2019-06-01T23:28:12.951Z,19.84
2019-06-01T23:30:45.271Z,19.79
2019-06-01T23:33:17.323Z,19.76
2019-06-01T23:35:49.281Z,19.73
2019-06-01T23:38:22.474Z,19.70
2019-06-01T23:40:54.520Z,19.67
2019-06-01T23:43:26.974Z,19.63
2019-06-01T23:45:59.184Z,19.62
2019-06-01T23:48:31.327Z,19.59
2019-06-01T23:51:03.341Z,19.56
2019-06-01T23:53:35.411Z,19.54
2019-06-01T23:56:07.454Z,19.53
2019-06-01T23:58:39.710Z,19.53
